Time;durP1;ratioP1;P1;durP2;ratioP2;P2;SDS_P1;SDS_P2;PMS_P1;PMS_P2;Temp;Humidity;BMP_temperature;BMP_pressure;BME280_temperature;BME280_humidity;BME280_pressure;Samples;Min_cycle;Max_cycle;Signal;HPM_P1;HPM_P2
2021/11/18 00:01:37;;;;;;;38.05;14.95;;;;;;;;;;5048994;28;20043;-89
2021/11/18 00:04:03;;;;;;;30.48;13.45;;;;;;;;;;5044273;28;20029;-86
2021/11/18 00:06:29;;;;;;;30.13;13.50;;;;;;;;;;5047236;28;20038;-88
2021/11/18 00:08:55;;;;;;;32.38;14.18;;;;;;;;;;5051116;28;20391;-87
2021/11/18 00:11:22;;;;;;;36.55;14.13;;;;;;;;;;5048629;28;20025;-89
2021/11/18 00:13:50;;;;;;;35.40;13.57;;;;;;;;;;5060497;28;20044;-87
2021/11/18 00:16:16;;;;;;;35.00;14.07;;;;;;;;;;5049285;28;20032;-86
2021/11/18 00:18:43;;;;;;;34.05;14.10;;;;;;;;;;5044791;28;20021;-87
2021/11/18 00:21:16;;;;;;;28.23;14.35;;;8.30;99.90;;;;;;5054040;28;20035;-88
2021/11/18 00:23:44;;;;;;;34.95;14.23;;;;;;;;;;5049738;28;20020;-89
2021/11/18 00:26:10;;;;;;;32.72;14.13;;;;;;;;;;5048708;28;20065;-88
2021/11/18 00:28:36;;;;;;;31.02;13.52;;;;;;;;;;5052427;28;20383;-89
2021/11/18 00:31:03;;;;;;;32.78;13.98;;;;;;;;;;5055915;28;20025;-85
2021/11/18 00:33:29;;;;;;;34.47;14.02;;;;;;;;;;5050175;28;20079;-89
2021/11/18 00:35:55;;;;;;;27.45;12.52;;;;;;;;;;5051700;28;20037;-88
2021/11/18 00:38:22;;;;;;;31.80;14.30;;;;;;;;;;5051725;28;20506;-87
2021/11/18 00:40:50;;;;;;;33.92;13.82;;;8.20;99.90;;;;;;5041410;28;20036;-87
2021/11/18 00:43:18;;;;;;;31.42;14.10;;;;;;;;;;5039783;28;20113;-88
2021/11/18 00:45:47;;;;;;;29.10;12.70;;;;;;;;;;5052601;28;20025;-88
2021/11/18 00:48:13;;;;;;;29.10;13.65;;;;;;;;;;5047720;28;20086;-85
2021/11/18 00:50:42;;;;;;;36.03;14.07;;;;;;;;;;5041683;28;20501;-88
2021/11/18 00:53:08;;;;;;;30.00;13.07;;;;;;;;;;5063358;28;20035;-89
2021/11/18 00:55:34;;;;;;;34.47;13.80;;;;;;;;;;5046421;28;20024;-88
2021/11/18 00:58:06;;;;;;;33.13;13.35;;;;;;;;;;5043001;28;20024;-85
2021/11/18 01:00:34;;;;;;;39.65;14.60;;;;;;;;;;5052442;28;20029;-87
2021/11/18 01:03:00;;;;;;;37.28;13.90;;;;;;;;;;5042573;28;20036;-90
2021/11/18 01:05:28;;;;;;;31.40;13.20;;;;;;;;;;5049949;28;20117;-89
2021/11/18 01:07:56;;;;;;;32.10;13.45;;;;;;;;;;5047857;28;20144;-81
2021/11/18 01:10:26;;;;;;;31.30;14.38;;;;;;;;;;5065700;28;20034;-86
2021/11/18 01:12:52;;;;;;;30.57;13.27;;;;;;;;;;5060578;28;20029;-80
2021/11/18 01:15:23;;;;;;;29.55;12.85;;;8.30;99.90;;;;;;5058879;28;20275;-83
2021/11/18 01:17:49;;;;;;;27.85;13.05;;;;;;;;;;5057995;28;20021;-86
2021/11/18 01:20:17;;;;;;;32.90;12.98;;;;;;;;;;5055426;28;20055;-87
2021/11/18 01:22:43;;;;;;;33.58;13.50;;;;;;;;;;5050515;28;20090;-89
2021/11/18 01:25:11;;;;;;;30.38;13.82;;;;;;;;;;5051312;28;20062;-91
2021/11/18 01:27:37;;;;;;;29.58;13.32;;;;;;;;;;5052622;28;20040;-85
2021/11/18 01:30:08;;;;;;;27.75;13.23;;;;;;;;;;5067486;28;20063;-88
2021/11/18 01:32:34;;;;;;;27.55;13.02;;;;;;;;;;5049775;28;20042;-86
2021/11/18 01:35:00;;;;;;;30.65;12.88;;;;;;;;;;5047288;28;20036;-85
2021/11/18 01:37:26;;;;;;;28.92;12.13;;;;;;;;;;5047282;28;20025;-85
2021/11/18 01:39:52;;;;;;;25.60;13.10;;;;;;;;;;5054959;28;20024;-87
2021/11/18 01:42:21;;;;;;;27.75;12.80;;;;;;;;;;5052254;28;20037;-88
2021/11/18 01:44:49;;;;;;;27.90;13.32;;;;;;;;;;5072858;28;20093;-86
2021/11/18 01:47:16;;;;;;;24.58;11.70;;;;;;;;;;5053702;28;20024;-89
2021/11/18 01:49:45;;;;;;;27.23;11.77;;;;;;;;;;5049190;28;20048;-85
2021/11/18 01:52:16;;;;;;;25.65;11.73;;;8.30;99.90;;;;;;5051736;28;20025;-84
2021/11/18 01:54:44;;;;;;;26.55;12.65;;;8.30;99.90;;;;;;5050215;28;20025;-86
2021/11/18 01:57:12;;;;;;;29.17;13.43;;;;;;;;;;5044109;28;20164;-86
2021/11/18 01:59:39;;;;;;;23.73;11.75;;;;;;;;;;5052798;28;20024;-87
2021/11/18 02:02:07;;;;;;;22.92;12.02;;;;;;;;;;5043549;28;20124;-84
2021/11/18 02:04:47;;;;;;;25.27;12.40;;;;;;;;;;5052405;28;20104;-87
2021/11/18 02:07:13;;;;;;;26.50;12.75;;;;;;;;;;5051397;28;20021;-86
2021/11/18 02:09:42;;;;;;;24.73;11.25;;;8.30;99.90;;;;;;5048090;28;20025;-87
2021/11/18 02:12:10;;;;;;;26.63;11.88;;;;;;;;;;5050799;28;20028;-86
2021/11/18 02:14:37;;;;;;;24.35;11.65;;;8.30;99.90;;;;;;5050893;28;20056;-89
2021/11/18 02:17:04;;;;;;;25.65;11.23;;;;;;;;;;5057770;28;20043;-86
2021/11/18 02:19:35;;;;;;;24.00;12.57;;;;;;;;;;5052725;28;20033;-84
2021/11/18 02:22:01;;;;;;;23.05;11.55;;;;;;;;;;5051348;28;20122;-86
2021/11/18 02:24:29;;;;;;;25.83;11.07;;;;;;;;;;5052275;28;20033;-87
2021/11/18 02:26:55;;;;;;;27.38;13.00;;;;;;;;;;5049052;28;20370;-86
2021/11/18 02:29:21;;;;;;;20.75;10.40;;;;;;;;;;5051192;28;20025;-87
2021/11/18 02:31:53;;;;;;;25.25;11.95;;;;;;;;;;5051705;28;20028;-89
2021/11/18 02:34:22;;;;;;;23.88;11.73;;;;;;;;;;5060617;28;20028;-85
2021/11/18 02:36:48;;;;;;;20.95;10.52;;;;;;;;;;5072185;28;20064;-85
2021/11/18 02:39:16;;;;;;;20.05;10.55;;;;;;;;;;5074731;28;20138;-85
2021/11/18 02:41:42;;;;;;;27.83;12.55;;;;;;;;;;5068972;28;20107;-87
2021/11/18 02:44:09;;;;;;;27.77;12.90;;;;;;;;;;5054146;28;20033;-82
2021/11/18 02:46:35;;;;;;;27.27;12.35;;;;;;;;;;5049173;28;20021;-87
2021/11/18 02:49:05;;;;;;;27.70;12.30;;;;;;;;;;5052203;28;20080;-85
2021/11/18 02:51:31;;;;;;;29.48;13.45;;;;;;;;;;5048568;28;20486;-85
2021/11/18 02:53:57;;;;;;;31.67;12.75;;;;;;;;;;5045040;28;20028;-87
2021/11/18 02:56:24;;;;;;;29.85;12.85;;;8.40;99.90;;;;;;5071580;28;20037;-88
2021/11/18 02:58:50;;;;;;;31.63;13.30;;;;;;;;;;5047268;28;20828;-87
2021/11/18 03:01:21;;;;;;;27.17;12.13;;;8.40;99.90;;;;;;5067512;28;20481;-85
2021/11/18 03:03:50;;;;;;;27.25;13.35;;;;;;;;;;5050628;28;20091;-87
2021/11/18 03:06:16;;;;;;;26.77;12.50;;;8.40;99.90;;;;;;5047875;28;20052;-86
2021/11/18 03:08:43;;;;;;;27.42;13.27;;;8.40;99.90;;;;;;5047049;28;20608;-86
2021/11/18 03:11:09;;;;;;;33.13;13.52;;;10.90;99.90;;;;;;5048250;28;20482;-85
2021/11/18 03:13:35;;;;;;;33.05;13.55;;;8.40;99.90;;;;;;5050210;28;20648;-87
2021/11/18 03:16:02;;;;;;;29.58;13.50;;;;;;;;;;5041190;28;20120;-88
2021/11/18 03:18:28;;;;;;;26.98;13.50;;;;;;;;;;5073352;28;20466;-87
2021/11/18 03:20:56;;;;;;;28.45;12.70;;;;;;;;;;5065471;28;20039;-88
2021/11/18 03:23:22;;;;;;;28.08;13.65;;;;;;;;;;5047795;28;20021;-87
2021/11/18 03:25:48;;;;;;;28.13;12.68;;;;;;;;;;5049378;28;20035;-89
2021/11/18 03:28:15;;;;;;;30.70;14.90;;;8.40;99.90;;;;;;5045441;28;20029;-86
2021/11/18 03:30:49;;;;;;;26.27;13.38;;;;;;;;;;5047936;28;20578;-86
2021/11/18 03:33:17;;;;;;;27.17;12.95;;;;;;;;;;5044588;28;20059;-88
2021/11/18 03:35:43;;;;;;;27.02;13.02;;;;;;;;;;5046226;28;20059;-85
2021/11/18 03:38:11;;;;;;;30.92;13.40;;;;;;;;;;5043519;28;20094;-86
2021/11/18 03:40:37;;;;;;;36.28;14.93;;;;;;;;;;5044018;28;20036;-85
2021/11/18 03:43:05;;;;;;;33.45;14.13;;;;;;;;;;5038983;28;20028;-86
2021/11/18 03:45:32;;;;;;;36.15;15.05;;;;;;;;;;5043956;28;20032;-87
2021/11/18 03:47:58;;;;;;;37.47;14.63;;;;;;;;;;5043569;28;20028;-87
2021/11/18 03:50:25;;;;;;;29.58;13.02;;;8.40;99.90;;;;;;5049314;28;20100;-90
2021/11/18 03:52:51;;;;;;;32.55;14.70;;;;;;;;;;5039276;28;20081;-87
2021/11/18 03:55:18;;;;;;;31.50;14.60;;;;;;;;;;5037246;28;20070;-89
2021/11/18 03:57:44;;;;;;;40.22;17.67;;;;;;;;;;5042139;28;20087;-87
2021/11/18 04:00:24;;;;;;;33.55;15.43;;;8.30;99.90;;;;;;5050336;28;20040;-89
2021/11/18 04:02:51;;;;;;;39.43;15.77;;;;;;;;;;5051611;28;20048;-88
2021/11/18 04:05:17;;;;;;;35.15;16.02;;;;;;;;;;5048298;28;20307;-83
2021/11/18 04:07:43;;;;;;;35.75;14.35;;;;;;;;;;5059325;28;20024;-84
2021/11/18 04:10:11;;;;;;;33.55;14.65;;;;;;;;;;5059243;28;20641;-88
2021/11/18 04:12:39;;;;;;;40.35;15.68;;;;;;;;;;5050165;28;20030;-84
2021/11/18 04:15:06;;;;;;;30.92;13.27;;;;;;;;;;5048015;28;20020;-84
2021/11/18 04:17:32;;;;;;;37.17;14.95;;;;;;;;;;5038183;28;20039;-86
2021/11/18 04:19:58;;;;;;;33.28;16.13;;;;;;;;;;5059628;28;20059;-88
2021/11/18 04:22:24;;;;;;;37.80;15.50;;;;;;;;;;5040166;28;20116;-86
2021/11/18 04:24:50;;;;;;;32.97;15.18;;;;;;;;;;5038078;28;20455;-84
2021/11/18 04:27:19;;;;;;;35.63;14.73;;;;;;;;;;5061157;28;20064;-86
2021/11/18 04:29:45;;;;;;;36.95;16.23;;;;;;;;;;5047974;28;20123;-85
2021/11/18 04:32:14;;;;;;;34.35;15.02;;;;;;;;;;5047587;28;20029;-87
2021/11/18 04:34:40;;;;;;;34.92;15.45;;;;;;;;;;5067456;28;20085;-89
2021/11/18 04:37:07;;;;;;;32.88;15.60;;;;;;;;;;5050215;28;20029;-88
2021/11/18 04:39:33;;;;;;;39.88;16.00;;;;;;;;;;5044078;28;20036;-86
2021/11/18 04:41:59;;;;;;;37.35;15.43;;;;;;;;;;5049443;28;20036;-84
2021/11/18 04:44:26;;;;;;;34.92;17.23;;;;;;;;;;5047192;28;20652;-87
2021/11/18 04:46:53;;;;;;;31.40;15.13;;;;;;;;;;5050139;28;20037;-85
2021/11/18 04:49:20;;;;;;;36.67;15.93;;;;;;;;;;5046472;28;20028;-88
2021/11/18 04:51:46;;;;;;;33.65;15.80;;;;;;;;;;5045945;28;20028;-88
2021/11/18 04:54:12;;;;;;;35.95;15.35;;;;;;;;;;5068672;28;20037;-81
2021/11/18 04:56:38;;;;;;;37.75;15.15;;;;;;;;;;5065714;28;20044;-87
2021/11/18 04:59:08;;;;;;;35.08;14.93;;;;;;;;;;5093536;28;20036;-89
2021/11/18 05:01:35;;;;;;;32.20;16.20;;;;;;;;;;5047804;28;20037;-89
2021/11/18 05:04:02;;;;;;;35.53;16.13;;;;;;;;;;5047842;28;20481;-89
2021/11/18 05:06:28;;;;;;;36.58;14.98;;;;;;;;;;5044523;28;20025;-87
2021/11/18 05:08:54;;;;;;;38.83;15.40;;;;;;;;;;5044204;28;20075;-88
2021/11/18 05:11:20;;;;;;;35.58;15.43;;;;;;;;;;5040912;28;20486;-88
2021/11/18 05:13:53;;;;;;;37.53;15.57;;;;;;;;;;5043028;28;20025;-88
2021/11/18 05:16:19;;;;;;;32.17;14.00;;;;;;;;;;5048683;28;20433;-87
2021/11/18 05:18:46;;;;;;;33.42;14.82;;;;;;;;;;5050032;28;20017;-89
2021/11/18 05:21:16;;;;;;;34.63;15.18;;;;;;;;;;5049395;28;20021;-87
2021/11/18 05:23:42;;;;;;;34.33;13.77;;;;;;;;;;5047639;28;20017;-87
2021/11/18 05:26:14;;;;;;;32.88;14.48;;;;;;;;;;5043715;28;20382;-88
2021/11/18 05:28:40;;;;;;;38.65;15.30;;;;;;;;;;5048091;28;20029;-84
2021/11/18 05:31:06;;;;;;;34.97;15.32;;;;;;;;;;5047600;28;20024;-90
2021/11/18 05:33:33;;;;;;;30.65;14.00;;;;;;;;;;5045767;28;20063;-87
2021/11/18 05:35:59;;;;;;;34.85;15.35;;;;;;;;;;5051947;28;20028;-89
2021/11/18 05:38:25;;;;;;;35.92;15.35;;;;;;;;;;5046673;28;20482;-87
2021/11/18 05:40:52;;;;;;;37.25;15.57;;;;;;;;;;5049822;28;20124;-87
2021/11/18 05:43:18;;;;;;;36.53;15.98;;;;;;;;;;5050151;28;20577;-88
2021/11/18 05:45:44;;;;;;;34.00;16.77;;;;;;;;;;5059837;28;20043;-86
2021/11/18 05:48:12;;;;;;;39.63;16.90;;;;;;;;;;5047445;28;20467;-88
2021/11/18 05:50:39;;;;;;;36.03;15.15;;;;;;;;;;5046587;28;20060;-88
2021/11/18 05:53:06;;;;;;;36.20;15.05;;;;;;;;;;5048022;28;20024;-89
2021/11/18 05:55:34;;;;;;;32.78;14.90;;;8.10;99.90;;;;;;5048847;28;20044;-84
2021/11/18 05:58:01;;;;;;;30.83;14.20;;;8.20;99.90;;;;;;5037305;28;20021;-88
2021/11/18 06:00:29;;;;;;;32.22;14.32;;;8.20;99.90;;;;;;5041703;28;20714;-86
2021/11/18 06:02:55;;;;;;;33.30;16.13;;;8.20;99.90;;;;;;5054653;28;20042;-86
2021/11/18 06:05:23;;;;;;;33.80;14.80;;;8.20;99.90;;;;;;5045628;28;20453;-85
2021/11/18 06:07:50;;;;;;;29.42;14.45;;;;;;;;;;5057568;28;20013;-89
2021/11/18 06:10:16;;;;;;;31.40;14.05;;;;;;;;;;5059546;28;20182;-88
2021/11/18 06:12:43;;;;;;;25.02;12.43;;;;;;;;;;5054567;28;20032;-89
2021/11/18 06:15:09;;;;;;;24.88;11.32;;;;;;;;;;5047291;28;20040;-88
2021/11/18 06:17:36;;;;;;;21.15;11.20;;;;;;;;;;5050485;28;20021;-88
2021/11/18 06:20:03;;;;;;;20.20;10.23;;;;;;;;;;5058654;28;20032;-88
2021/11/18 06:22:29;;;;;;;22.05;10.80;;;;;;;;;;5045077;28;20242;-90
2021/11/18 06:24:56;;;;;;;23.13;11.18;;;;;;;;;;5059096;28;20032;-86
2021/11/18 06:27:23;;;;;;;26.45;11.70;;;;;;;;;;5059449;28;20040;-87
2021/11/18 06:29:50;;;;;;;23.75;11.13;;;;;;;;;;5063470;28;20017;-87
2021/11/18 06:32:16;;;;;;;22.85;9.70;;;;;;;;;;5068586;28;20031;-86
2021/11/18 06:34:45;;;;;;;19.38;10.60;;;;;;;;;;5070138;28;20025;-83
2021/11/18 06:37:14;;;;;;;23.83;10.82;;;;;;;;;;5062295;28;20494;-83
2021/11/18 06:39:42;;;;;;;21.98;10.13;;;;;;;;;;5061716;28;20048;-87
2021/11/18 06:42:09;;;;;;;25.10;9.98;;;;;;;;;;5062177;28;20044;-83
2021/11/18 06:44:35;;;;;;;23.80;11.25;;;;;;;;;;5062055;28;20040;-89
2021/11/18 06:47:01;;;;;;;25.58;11.52;;;;;;;;;;5080550;28;20028;-83
2021/11/18 06:49:29;;;;;;;26.90;10.90;;;;;;;;;;5069552;28;20056;-83
2021/11/18 06:51:55;;;;;;;25.30;11.25;;;;;;;;;;5062486;28;20457;-84
2021/11/18 06:54:21;;;;;;;23.85;11.00;;;;;;;;;;5065175;28;20029;-87
2021/11/18 06:56:49;;;;;;;23.30;10.20;;;;;;;;;;5064831;28;20024;-89
2021/11/18 06:59:18;;;;;;;25.13;11.77;;;;;;;;;;5079703;28;20036;-84
2021/11/18 07:01:45;;;;;;;26.88;11.45;;;;;;;;;;5068042;28;20028;-84
2021/11/18 07:04:15;;;;;;;26.45;11.25;;;;;;;;;;5066131;28;20025;-84
2021/11/18 07:06:41;;;;;;;22.85;11.45;;;;;;;;;;5063547;28;20075;-84
2021/11/18 07:09:10;;;;;;;27.90;11.38;;;;;;;;;;5063956;28;20037;-88
2021/11/18 07:11:36;;;;;;;25.48;11.35;;;;;;;;;;5070994;28;20033;-88
2021/11/18 07:14:02;;;;;;;25.60;12.50;;;;;;;;;;5070059;28;20048;-86
2021/11/18 07:16:29;;;;;;;23.00;10.30;;;;;;;;;;5072321;28;20011;-89
2021/11/18 07:18:59;;;;;;;27.20;11.27;;;;;;;;;;5075269;28;20085;-88
2021/11/18 07:21:25;;;;;;;23.63;10.90;;;;;;;;;;5071243;28;20024;-88
2021/11/18 07:23:55;;;;;;;24.40;10.50;;;;;;;;;;5066654;28;20036;-86
2021/11/18 07:26:21;;;;;;;20.63;9.98;;;;;;;;;;5070071;28;20047;-87
2021/11/18 07:28:47;;;;;;;20.42;10.02;;;;;;;;;;5071035;28;20063;-88
2021/11/18 07:31:14;;;;;;;25.05;11.45;;;;;;;;;;5072401;28;20059;-84
2021/11/18 07:33:43;;;;;;;23.00;10.05;;;;;;;;;;5060730;28;20044;-87
2021/11/18 07:36:15;;;;;;;24.63;11.15;;;;;;;;;;5065463;28;20017;-87
2021/11/18 07:38:43;;;;;;;21.38;10.80;;;;;;;;;;5069352;28;20096;-87
2021/11/18 07:41:10;;;;;;;24.33;10.80;;;;;;;;;;5087155;28;20028;-87
2021/11/18 07:43:56;;;;;;;22.75;10.27;;;;;;;;;;5069300;28;20032;-88
2021/11/18 07:46:26;;;;;;;23.83;10.70;;;;;;;;;;5062357;28;20028;-83
2021/11/18 07:48:58;;;;;;;21.63;10.00;;;;;;;;;;5065903;28;20033;-85
2021/11/18 07:51:45;;;;;;;30.05;10.80;;;;;;;;;;5064537;28;20029;-86
2021/11/18 07:54:15;;;;;;;21.73;10.68;;;;;;;;;;5068333;28;20021;-89
2021/11/18 07:56:54;;;;;;;20.83;10.68;;;;;;;;;;5057422;28;20036;-88
2021/11/18 07:59:22;;;;;;;21.58;9.82;;;;;;;;;;5071706;28;20021;-87
2021/11/18 08:01:49;;;;;;;25.00;11.15;;;;;;;;;;5060075;28;20094;-85
2021/11/18 08:04:15;;;;;;;20.92;9.70;;;;;;;;;;5071802;28;20021;-86
2021/11/18 08:06:49;;;;;;;19.92;9.98;;;;;;;;;;5061405;28;20048;-88
2021/11/18 08:09:16;;;;;;;20.08;9.80;;;;;;;;;;5064841;28;20032;-87
2021/11/18 08:11:47;;;;;;;27.20;10.45;;;;;;;;;;5063496;28;20035;-86
2021/11/18 08:14:14;;;;;;;27.38;10.52;;;;;;;;;;5069737;28;20017;-89
2021/11/18 08:16:44;;;;;;;20.55;10.40;;;;;;;;;;5062639;28;20068;-84
2021/11/18 08:19:10;;;;;;;21.30;9.95;;;;;;;;;;5064344;28;20052;-86
2021/11/18 08:21:39;;;;;;;17.13;9.75;;;;;;;;;;5068604;28;20035;-83
2021/11/18 08:24:30;;;;;;;22.75;10.70;;;;;;;;;;5067418;28;20028;-87
2021/11/18 08:26:55;;;;;;;21.23;10.32;;;;;;;;;;5081996;28;20431;-89
2021/11/18 08:29:23;;;;;;;19.20;9.73;;;;;;;;;;5060246;28;20052;-88
2021/11/18 08:31:50;;;;;;;23.77;9.82;;;;;;;;;;5073750;28;20433;-86
2021/11/18 08:34:16;;;;;;;21.67;10.63;;;;;;;;;;5061396;28;20051;-89
2021/11/18 08:36:43;;;;;;;24.13;9.35;;;;;;;;;;5058378;28;20039;-88
2021/11/18 08:39:10;;;;;;;19.35;9.55;;;;;;;;;;5056917;28;20033;-87
2021/11/18 08:41:36;;;;;;;20.20;9.45;;;;;;;;;;5056699;28;20036;-87
2021/11/18 08:44:02;;;;;;;18.83;9.98;;;;;;;;;;5062583;28;20036;-90
2021/11/18 08:46:30;;;;;;;21.48;9.52;;;;;;;;;;5069677;28;20021;-88
2021/11/18 08:49:03;;;;;;;19.30;10.00;;;;;;;;;;5060651;28;20029;-88
2021/11/18 08:51:33;;;;;;;16.33;9.57;;;;;;;;;;5066349;28;20033;-90
2021/11/18 08:54:04;;;;;;;23.20;10.27;;;;;;;;;;5060973;28;20020;-85
2021/11/18 08:56:31;;;;;;;23.52;11.65;;;;;;;;;;5069823;28;20013;-89
2021/11/18 08:59:01;;;;;;;24.10;11.10;;;;;;;;;;5084103;28;20032;-88
2021/11/18 09:01:40;;;;;;;22.35;11.05;;;;;;;;;;5077957;28;20046;-88
2021/11/18 09:04:08;;;;;;;22.23;10.57;;;;;;;;;;5057633;28;20025;-88
2021/11/18 09:06:35;;;;;;;18.77;9.32;;;;;;;;;;5053543;28;20021;-88
2021/11/18 09:09:04;;;;;;;22.20;9.93;;;;;;;;;;5054302;28;20025;-89
2021/11/18 09:11:31;;;;;;;23.52;10.63;;;;;;;;;;5061752;28;20116;-89
2021/11/18 09:13:57;;;;;;;24.60;10.32;;;;;;;;;;5059946;28;20029;-90
2021/11/18 09:16:24;;;;;;;18.38;9.38;;;;;;;;;;5077774;28;20021;-89
2021/11/18 09:18:58;;;;;;;23.13;9.27;;;;;;;;;;5063905;28;20116;-91
2021/11/18 09:21:25;;;;;;;20.80;10.25;;;;;;;;;;5056459;28;20031;-88
2021/11/18 09:24:06;;;;;;;20.58;10.35;;;;;;;;;;5060734;28;20035;-90
2021/11/18 09:26:34;;;;;;;20.48;8.68;;;;;;;;;;5058361;28;20032;-90
2021/11/18 09:29:06;;;;;;;19.55;9.63;;;;;;;;;;5063281;28;20044;-90
2021/11/18 09:31:38;;;;;;;24.52;10.15;;;;;;;;;;5065699;28;20517;-87
2021/11/18 09:34:04;;;;;;;22.23;9.63;;;;;;;;;;5067180;28;20084;-87
2021/11/18 09:36:30;;;;;;;22.77;10.77;;;;;;;;;;5088839;28;20024;-89
2021/11/18 09:38:58;;;;;;;20.80;9.85;;;;;;;;;;5063164;28;20028;-88
2021/11/18 09:41:33;;;;;;;19.08;9.32;;;;;;;;;;5068277;28;20017;-90
2021/11/18 09:44:17;;;;;;;24.25;10.55;;;;;;;;;;5065439;28;20044;-89
2021/11/18 09:47:11;;;;;;;27.92;11.48;;;9.30;99.90;;;;;;5072968;28;20020;-89
2021/11/18 09:49:51;;;;;;;21.95;8.90;;;;;;;;;;5067337;28;20029;-85
2021/11/18 09:52:26;;;;;;;23.38;9.43;;;;;;;;;;5071427;28;20196;-89
2021/11/18 09:55:08;;;;;;;19.15;9.13;;;;;;;;;;5067151;28;20029;-89
2021/11/18 09:57:44;;;;;;;21.25;9.27;;;;;;;;;;5066706;28;20051;-86
2021/11/18 10:00:29;;;;;;;24.13;9.38;;;;;;;;;;5066522;28;20140;-87
2021/11/18 10:03:17;;;;;;;21.60;8.52;;;;;;;;;;5069803;28;20028;-90
2021/11/18 10:05:56;;;;;;;16.15;7.70;;;;;;;;;;5064730;28;20086;-87
2021/11/18 10:08:24;;;;;;;19.58;7.68;;;;;;;;;;5060315;28;20059;-86
2021/11/18 10:11:02;;;;;;;20.10;8.40;;;;;;;;;;5055029;28;20397;-87
2021/11/18 10:13:54;;;;;;;23.98;8.75;;;;;;;;;;5064377;28;20021;-88
2021/11/18 10:16:23;;;;;;;18.35;7.20;;;;;;;;;;5056549;28;20028;-89
2021/11/18 10:18:54;;;;;;;17.38;8.45;;;;;;;;;;5061029;28;20029;-90
2021/11/18 10:21:23;;;;;;;;;;;;;;;;;;5058231;28;20065;-89
2021/11/18 10:24:10;;;;;;;18.85;8.00;;;;;;;;;;5059346;28;19912;-89
2021/11/18 10:26:50;;;;;;;18.10;8.40;;;;;;;;;;5065075;28;20021;-85
2021/11/18 10:29:23;;;;;;;17.50;8.33;;;;;;;;;;5081524;28;20055;-88
2021/11/18 10:31:50;;;;;;;19.27;8.82;;;;;;;;;;5059325;28;20032;-87
2021/11/18 10:34:45;;;;;;;22.80;8.75;;;;;;;;;;5060531;28;20023;-90
2021/11/18 10:37:23;;;;;;;17.20;8.18;;;;;;;;;;5042006;28;20032;-86
2021/11/18 10:39:52;;;;;;;14.70;8.10;;;;;;;;;;5062713;28;20032;-84
2021/11/18 10:42:25;;;;;;;24.85;9.00;;;;;;;;;;5064794;28;20417;-86
2021/11/18 10:45:03;;;;;;;25.95;9.25;;;;;;;;;;5055900;28;20028;-85
2021/11/18 10:47:48;;;;;;;20.02;8.32;;;;;;;;;;5066589;28;20021;-86
2021/11/18 10:50:32;;;;;;;15.93;7.55;;;;;;;;;;5058882;28;20041;-85
2021/11/18 10:53:07;;;;;;;18.85;7.97;;;;;;;;;;5056271;28;20546;-86
2021/11/18 10:55:37;;;;;;;22.55;8.45;;;;;;;;;;5061020;28;20028;-86
2021/11/18 10:58:10;;;;;;;24.55;9.43;;;;;;;;;;5063165;28;20055;-88
2021/11/18 11:00:42;;;;;;;16.08;7.68;;;;;;;;;;5063280;28;20036;-87
2021/11/18 11:03:22;;;;;;;17.85;7.55;;;;;;;;;;5052647;28;20063;-83
2021/11/18 11:05:49;;;;;;;15.23;6.68;;;;;;;;;;5034948;28;20040;-89
2021/11/18 11:08:50;;;;;;;20.52;7.88;;;;;;;;;;5070659;28;20021;-85
2021/11/18 11:11:24;;;;;;;13.93;7.03;;;;;;;;;;5054821;28;20032;-86
2021/11/18 11:14:04;;;;;;;24.73;8.88;;;;;;;;;;5045861;28;20051;-88
2021/11/18 11:16:50;;;;;;;14.70;7.30;;;;;;;;;;5067690;28;20033;-88
2021/11/18 11:19:34;;;;;;;17.08;9.10;;;;;;;;;;5040367;28;20280;-81
2021/11/18 11:22:20;;;;;;;17.70;8.13;;;;;;;;;;5066610;28;20482;-89
2021/11/18 11:24:53;;;;;;;20.75;8.90;;;;;;;;;;5051626;28;20108;-87
2021/11/18 11:27:37;;;;;;;17.23;7.93;;;;;;;;;;5062133;28;20037;-88
2021/11/18 11:30:26;;;;;;;15.90;8.13;;;;;;;;;;5049086;28;20554;-88
2021/11/18 11:32:54;;;;;;;17.65;8.05;;;;;;;;;;5049238;28;20478;-89
2021/11/18 11:35:42;;;;;;;21.50;8.10;;;;;;;;;;5044724;28;20017;-88
2021/11/18 11:38:10;;;;;;;22.75;7.78;;;;;;;;;;5046450;28;20390;-86
2021/11/18 11:40:36;;;;;;;17.00;7.28;;;;;;;;;;5047566;28;20052;-88
2021/11/18 11:43:16;;;;;;;16.92;6.95;;;;;;;;;;5055713;28;20029;-88
2021/11/18 11:45:45;;;;;;;17.67;7.68;;;;;;;;;;5052319;28;20025;-85
2021/11/18 11:48:23;;;;;;;23.38;8.77;;;;;;;;;;5049631;28;20047;-84
2021/11/18 11:50:55;;;;;;;20.10;7.88;;;;;;;;;;5056650;28;20100;-87
2021/11/18 11:53:34;;;;;;;20.05;6.68;;;;;;;;;;5055261;28;20044;-86
2021/11/18 11:56:12;;;;;;;14.43;5.95;;;;;;;;;;5064540;28;20040;-90
2021/11/18 11:58:54;;;;;;;18.45;7.15;;;;;;;;;;5073777;28;20036;-89
2021/11/18 12:01:24;;;;;;;13.32;6.32;;;;;;;;;;5067217;28;20017;-91
2021/11/18 12:04:13;;;;;;;21.25;7.07;;;;;;;;;;5063718;28;20452;-89
2021/11/18 12:06:57;;;;;;;20.70;7.72;;;;;;;;;;5066261;28;20029;-84
2021/11/18 12:09:50;;;;;;;19.15;6.97;;;;;;;;;;5058707;28;20033;-83
2021/11/18 12:12:43;;;;;;;20.98;7.50;;;;;;;;;;5065506;28;20035;-83
2021/11/18 12:15:17;;;;;;;21.02;7.00;;;;;;;;;;5058019;28;20032;-88
2021/11/18 12:18:01;;;;;;;32.50;9.10;;;;;;;;;;5052953;28;20063;-89
2021/11/18 12:20:50;;;;;;;18.00;6.80;;;;;;;;;;5063277;28;20666;-88
2021/11/18 12:23:36;;;;;;;18.08;7.28;;;;;;;;;;5045817;28;20059;-89
2021/11/18 12:26:18;;;;;;;19.58;6.68;;;;;;;;;;5042944;28;20055;-87
2021/11/18 12:29:21;;;;;;;16.13;6.70;;;;;;;;;;5042441;28;20040;-90
2021/11/18 12:32:24;;;;;;;17.15;6.20;;;;;;;;;;5014377;28;20036;-92
2021/11/18 12:35:32;;;;;;;17.38;6.00;;;;;;;;;;5041549;28;20025;-87
2021/11/18 12:38:12;;;;;;;21.05;5.15;;;;;;;;;;5006776;28;20507;-91
2021/11/18 12:40:57;;;;;;;12.73;5.28;;;;;;;;;;5011587;28;20033;-91
2021/11/18 12:43:45;;;;;;;13.77;5.70;;;;;;;;;;5040430;28;20055;-90
2021/11/18 12:46:30;;;;;;;11.10;5.18;;;;;;;;;;5066829;28;20017;-89
2021/11/18 12:48:58;;;;;;;17.08;6.20;;;;;;;;;;5048717;28;20702;-91
2021/11/18 12:52:02;;;;;;;14.25;6.05;;;10.70;99.90;;;;;;5055600;28;20029;-92
2021/11/18 12:54:32;;;;;;;14.50;5.15;;;;;;;;;;5054084;28;20024;-87
2021/11/18 12:57:17;;;;;;;14.00;5.38;;;;;;;;;;5060367;28;20025;-83
2021/11/18 12:59:46;;;;;;;15.93;5.88;;;;;;;;;;5052197;28;20035;-91
2021/11/18 13:02:27;;;;;;;12.48;5.10;;;;;;;;;;5052620;28;20029;-89
2021/11/18 13:05:10;;;;;;;12.55;4.70;;;;;;;;;;5049892;28;20029;-90
2021/11/18 13:07:41;;;;;;;10.75;4.35;;;;;;;;;;5048465;28;20028;-90
2021/11/18 13:10:20;;;;;;;10.07;4.28;;;;;;;;;;5057351;28;20040;-90
2021/11/18 13:13:01;;;;;;;14.18;6.22;;;;;;;;;;5050165;28;20496;-86
2021/11/18 13:15:39;;;;;;;12.60;4.30;;;;;;;;;;5047540;28;20025;-92
2021/11/18 13:18:25;;;;;;;14.25;4.97;;;;;;;;;;5054677;28;20539;-86
2021/11/18 13:21:10;;;;;;;12.52;4.68;;;;;;;;;;5054104;28;20036;-91
2021/11/18 13:23:40;;;;;;;14.95;5.18;;;;;;;;;;5060260;28;20502;-89
2021/11/18 13:26:12;;;;;;;15.85;5.65;;;;;;;;;;5066981;28;20041;-88
2021/11/18 13:28:38;;;;;;;17.50;6.53;;;;;;;;;;5050076;28;20041;-85
2021/11/18 13:31:04;;;;;;;13.80;5.80;;;;;;;;;;5046914;28;20462;-87
2021/11/18 13:33:39;;;;;;;18.23;6.40;;;;;;;;;;5052866;28;20547;-86
2021/11/18 13:36:09;;;;;;;19.05;5.43;;;;;;;;;;5059672;28;20056;-90
2021/11/18 13:38:37;;;;;;;11.67;4.03;;;;;;;;;;5046318;28;20052;-89
2021/11/18 13:41:06;;;;;;;12.18;5.32;;;;;;;;;;5046171;28;20279;-85
2021/11/18 13:43:49;;;;;;;13.75;5.07;;;;;;;;;;5046593;28;20393;-87
2021/11/18 13:46:22;;;;;;;17.30;4.78;;;;;;;;;;5047400;28;20370;-85
2021/11/18 13:49:02;;;;;;;11.57;4.28;;;;;;;;;;5040139;28;20060;-86
2021/11/18 13:51:34;;;;;;;13.00;4.47;;;;;;;;;;5060373;28;20112;-84
2021/11/18 13:54:00;;;;;;;21.13;9.30;;;;;;;;;;5041788;28;20143;-87
2021/11/18 13:57:02;;;;;;;15.43;5.30;;;;;;;;;;5043309;28;20045;-90
2021/11/18 13:59:32;;;;;;;14.25;5.10;;;;;;;;;;4952821;28;20027;-89
2021/11/18 14:02:10;;;;;;;14.65;4.75;;;;;;;;;;5031680;28;20085;-86
2021/11/18 14:04:40;;;;;;;13.90;5.13;;;;;;;;;;5047125;28;20037;-90
2021/11/18 14:07:07;;;;;;;18.90;4.68;;;;;;;;;;5053082;28;20036;-91
2021/11/18 14:09:38;;;;;;;15.40;5.05;;;;;;;;;;5052445;28;20033;-91
2021/11/18 14:12:19;;;;;;;13.00;4.45;;;;;;;;;;5042650;28;20025;-85
2021/11/18 14:14:50;;;;;;;12.55;4.25;;;;;;;;;;5045700;28;20053;-85
2021/11/18 14:17:16;;;;;;;15.55;4.88;;;;;;;;;;5048047;28;20122;-87
2021/11/18 14:20:03;;;;;;;16.20;4.30;;;;;;;;;;5045637;28;20102;-89
2021/11/18 14:22:30;;;;;;;12.20;4.40;;;;;;;;;;5033077;28;20418;-90
2021/11/18 14:24:57;;;;;;;13.65;4.78;;;;;;;;;;5052813;28;20500;-90
2021/11/18 14:27:29;;;;;;;14.95;5.25;;;;;;;;;;5054506;28;20088;-87
2021/11/18 14:30:09;;;;;;;21.45;5.60;;;;;;;;;;5053591;28;20025;-88
2021/11/18 14:32:50;;;;;;;17.15;4.90;;;;;;;;;;5066146;28;20032;-90
2021/11/18 14:35:20;;;;;;;14.05;5.18;;;;;;;;;;5078614;28;20021;-89
2021/11/18 14:38:02;;;;;;;16.30;5.20;;;;;;;;;;5052451;28;20028;-90
2021/11/18 14:40:57;;;;;;;;;;;;;;;;;;;;;